createdAt,value
2018-11-05T00:03:00.903Z,37.57
2018-11-05T00:08:05.376Z,39.00
2018-11-05T00:13:09.911Z,40.00
2018-11-05T00:18:14.952Z,37.30
2018-11-05T00:23:19.173Z,36.83
2018-11-05T00:28:23.744Z,39.23
2018-11-05T00:33:28.689Z,39.80
2018-11-05T00:38:33.377Z,39.30
2018-11-05T00:43:51.423Z,39.07
2018-11-05T00:48:56.291Z,41.17
2018-11-05T00:54:01.423Z,38.20
2018-11-05T00:59:05.969Z,40.67
2018-11-05T01:04:11.276Z,39.90
2018-11-05T01:09:17.245Z,39.50
2018-11-05T01:14:22.423Z,40.27
2018-11-05T01:19:27.054Z,39.33
2018-11-05T01:24:32.106Z,39.27
2018-11-05T01:29:36.837Z,35.80
2018-11-05T01:34:41.410Z,34.73
2018-11-05T01:39:46.656Z,37.97
2018-11-05T01:44:51.259Z,40.77
2018-11-05T01:49:55.882Z,42.03
2018-11-05T01:55:00.694Z,41.17
2018-11-05T02:00:07.170Z,44.27
2018-11-05T02:05:12.444Z,42.80
2018-11-05T02:10:19.176Z,44.03
2018-11-05T02:15:24.343Z,45.07
2018-11-05T02:20:28.696Z,45.23
2018-11-05T02:25:33.544Z,45.07
2018-11-05T02:30:37.909Z,46.23
2018-11-05T02:35:44.091Z,43.97
2018-11-05T02:40:48.555Z,42.67
2018-11-05T02:45:55.994Z,45.57
2018-11-05T02:51:03.687Z,46.57
2018-11-05T02:56:09.101Z,45.43
2018-11-05T03:01:14.173Z,45.10
2018-11-05T03:06:18.389Z,46.40
2018-11-05T03:11:23.305Z,45.67
2018-11-05T03:16:28.708Z,44.17
2018-11-05T03:21:34.365Z,43.20
2018-11-05T03:26:39.174Z,44.83
2018-11-05T03:31:43.483Z,46.57
2018-11-05T03:36:47.880Z,41.67
2018-11-05T03:41:53.440Z,41.60
2018-11-05T03:46:57.718Z,41.33
2018-11-05T03:52:02.267Z,42.07
2018-11-05T03:57:06.667Z,41.43
2018-11-05T04:02:11.145Z,41.30
2018-11-05T04:07:19.138Z,40.40
2018-11-05T04:12:23.704Z,42.33
2018-11-05T04:17:28.339Z,41.77
2018-11-05T04:22:33.111Z,40.30
2018-11-05T04:27:38.577Z,40.90
2018-11-05T04:32:44.219Z,40.90
2018-11-05T04:37:49.317Z,41.10
2018-11-05T04:42:53.925Z,42.07
2018-11-05T04:47:58.445Z,38.97
2018-11-05T04:53:02.997Z,37.93
2018-11-05T04:58:07.504Z,38.07
2018-11-05T05:03:12.019Z,36.00
2018-11-05T05:08:16.823Z,37.67
2018-11-05T05:13:21.169Z,35.33
2018-11-05T05:18:25.843Z,35.00
2018-11-05T05:29:02.756Z,34.97
2018-11-05T05:34:07.558Z,35.67
2018-11-05T05:39:12.021Z,34.57
2018-11-05T05:44:16.583Z,33.37
2018-11-05T05:49:21.293Z,36.03
2018-11-05T05:54:26.571Z,38.80
2018-11-05T05:59:31.168Z,35.23
2018-11-05T06:04:35.502Z,36.90
2018-11-05T06:09:39.985Z,37.27
2018-11-05T06:14:44.376Z,35.27
2018-11-05T06:19:48.909Z,37.63
2018-11-05T06:24:53.338Z,36.57
2018-11-05T06:29:58.049Z,37.63
2018-11-05T06:35:02.967Z,36.53
2018-11-05T06:40:08.633Z,36.57
2018-11-05T06:45:22.836Z,35.73
2018-11-05T06:50:27.602Z,35.43
2018-11-05T06:55:38.141Z,35.90
2018-11-05T07:00:42.993Z,35.73
2018-11-05T07:05:47.870Z,35.43
2018-11-05T07:10:52.613Z,34.73
2018-11-05T07:15:57.290Z,33.77
2018-11-05T07:21:01.785Z,36.80
2018-11-05T07:26:07.659Z,32.83
2018-11-05T07:31:12.187Z,32.17
2018-11-05T07:36:17.447Z,34.17
2018-11-05T07:41:22.053Z,32.90
2018-11-05T07:46:26.941Z,33.93
2018-11-05T07:51:31.388Z,33.30
2018-11-05T07:56:35.963Z,34.50
2018-11-05T08:01:40.440Z,34.77
2018-11-05T08:06:44.814Z,35.57
2018-11-05T08:11:49.293Z,36.53
2018-11-05T08:16:53.673Z,35.77
2018-11-05T08:21:58.165Z,36.70
2018-11-05T08:27:02.924Z,35.83
2018-11-05T08:32:08.455Z,35.90
2018-11-05T08:37:14.506Z,34.67
2018-11-05T08:42:19.635Z,33.13
2018-11-05T08:47:24.307Z,34.77
2018-11-05T08:58:05.627Z,34.03
2018-11-05T09:03:10.445Z,35.00
2018-11-05T09:08:15.661Z,35.57
2018-11-05T09:13:20.806Z,36.40
2018-11-05T09:18:25.363Z,34.97
2018-11-05T09:23:29.888Z,33.87
2018-11-05T09:28:34.357Z,34.40
2018-11-05T09:33:38.851Z,35.33
2018-11-05T09:38:44.521Z,35.37
2018-11-05T09:43:49.099Z,40.60
2018-11-05T09:48:53.989Z,37.57
2018-11-05T09:54:03.699Z,35.63
2018-11-05T09:59:08.693Z,37.10
2018-11-05T10:04:13.214Z,35.37
2018-11-05T10:09:18.457Z,34.10
2018-11-05T10:14:25.190Z,35.50
2018-11-05T10:19:29.785Z,34.80
2018-11-05T10:24:35.835Z,35.47
2018-11-05T10:29:41.458Z,35.07
2018-11-05T10:34:46.260Z,34.93
2018-11-05T10:39:51.216Z,33.37
2018-11-05T10:44:56.868Z,33.97
2018-11-05T10:50:01.527Z,33.83
2018-11-05T10:55:06.228Z,33.60
2018-11-05T11:00:24.516Z,31.67
2018-11-05T11:05:30.881Z,31.07
2018-11-05T11:10:35.664Z,31.37
2018-11-05T11:15:40.925Z,31.00
2018-11-05T11:20:46.168Z,32.20
2018-11-05T11:25:50.813Z,30.87
2018-11-05T11:30:56.051Z,32.87
2018-11-05T11:36:01.858Z,31.43
2018-11-05T11:41:08.025Z,30.53
2018-11-05T11:46:16.866Z,31.67
2018-11-05T11:51:22.112Z,31.00
2018-11-05T11:56:26.859Z,29.60
2018-11-05T12:01:38.140Z,30.50
2018-11-05T12:06:42.665Z,30.37
2018-11-05T12:11:48.020Z,29.70
2018-11-05T12:16:54.173Z,29.67
2018-11-05T12:21:59.197Z,28.83
2018-11-05T12:27:05.155Z,28.07
2018-11-05T12:32:11.730Z,27.97
2018-11-05T12:37:16.668Z,26.50
2018-11-05T12:42:26.554Z,27.50
2018-11-05T12:47:32.980Z,28.97
2018-11-05T12:52:44.027Z,27.77
2018-11-05T12:57:49.279Z,25.17
2018-11-05T13:03:12.444Z,26.60
2018-11-05T13:08:16.994Z,25.43
2018-11-05T13:13:27.054Z,24.83
2018-11-05T13:18:32.478Z,25.33
2018-11-05T13:23:45.206Z,24.80
2018-11-05T13:28:50.122Z,25.20
2018-11-05T13:33:57.876Z,25.07
2018-11-05T13:39:06.383Z,24.77
2018-11-05T13:44:12.380Z,23.77
2018-11-05T13:49:21.459Z,24.63
2018-11-05T13:54:29.470Z,24.27
2018-11-05T13:59:37.938Z,27.47
2018-11-05T14:04:45.290Z,24.90
2018-11-05T14:09:51.942Z,25.17
2018-11-05T14:14:57.802Z,25.33
2018-11-05T14:20:03.388Z,23.93
2018-11-05T14:25:12.326Z,23.90
2018-11-05T14:30:17.678Z,19.93
2018-11-05T14:35:22.563Z,20.80
2018-11-05T14:40:31.297Z,21.87
2018-11-05T14:45:41.073Z,20.97
2018-11-05T14:50:46.703Z,19.03
2018-11-05T14:55:51.698Z,19.67
2018-11-05T15:00:56.483Z,19.87
2018-11-05T15:06:10.731Z,19.57
2018-11-05T15:11:15.757Z,21.10
2018-11-05T15:16:29.976Z,20.70
2018-11-05T15:21:34.581Z,20.53
2018-11-05T15:26:49.094Z,20.17
2018-11-05T15:31:54.136Z,20.43
2018-11-05T15:37:08.484Z,20.97
2018-11-05T15:42:14.676Z,20.63
2018-11-05T15:47:21.246Z,20.23
2018-11-05T15:52:27.480Z,20.77
2018-11-05T15:57:32.987Z,22.20
2018-11-05T16:02:57.352Z,21.97
2018-11-05T16:08:02.746Z,23.07
2018-11-05T16:13:07.842Z,23.30
2018-11-05T16:18:17.516Z,24.57
2018-11-05T16:23:23.730Z,24.23
2018-11-05T16:28:28.371Z,23.93
2018-11-05T16:33:34.431Z,24.87
2018-11-05T16:38:39.873Z,26.63
2018-11-05T16:43:50.912Z,25.93
2018-11-05T16:48:55.854Z,25.33
2018-11-05T16:54:06.251Z,25.73
2018-11-05T16:59:11.435Z,26.63
2018-11-05T17:04:27.504Z,28.07
2018-11-05T17:09:41.087Z,26.07
2018-11-05T17:14:48.266Z,26.03
2018-11-05T17:19:55.238Z,26.97
2018-11-05T17:25:09.103Z,26.67
2018-11-05T17:30:18.238Z,26.73
2018-11-05T17:35:29.159Z,26.60
2018-11-05T17:40:36.654Z,27.47
2018-11-05T17:45:48.031Z,26.53
2018-11-05T17:51:07.974Z,28.43
2018-11-05T17:56:16.778Z,26.57
2018-11-05T18:06:25.677Z,28.97
2018-11-05T18:11:34.536Z,25.10
2018-11-05T18:16:48.168Z,28.37
2018-11-05T18:27:27.356Z,26.40
2018-11-05T18:38:28.944Z,25.47
2018-11-05T18:43:57.500Z,25.67
2018-11-05T18:49:14.639Z,25.80
2018-11-05T19:21:11.760Z,26.57
2018-11-05T19:26:19.091Z,27.40
2018-11-05T19:31:27.476Z,27.03
2018-11-05T19:36:33.406Z,25.87
2018-11-05T19:41:40.773Z,26.47
2018-11-05T19:46:47.015Z,29.97
2018-11-05T19:51:52.578Z,27.40
2018-11-05T19:57:18.216Z,26.97
2018-11-05T20:02:41.852Z,27.20
2018-11-05T20:07:49.386Z,28.60
2018-11-05T20:13:08.634Z,27.90
2018-11-05T20:18:25.851Z,26.90
2018-11-05T20:23:34.982Z,27.40
2018-11-05T20:28:46.816Z,26.73
2018-11-05T20:33:52.171Z,28.37
2018-11-05T20:38:59.613Z,27.63
2018-11-05T20:44:22.886Z,28.60
2018-11-05T20:49:27.652Z,27.37
2018-11-05T20:54:32.464Z,27.40
2018-11-05T20:59:37.164Z,26.77
2018-11-05T21:04:43.088Z,26.80
2018-11-05T21:09:47.580Z,27.30
2018-11-05T21:14:52.516Z,27.67
2018-11-05T21:19:57.746Z,26.33
2018-11-05T21:25:03.143Z,26.63
2018-11-05T21:30:10.034Z,24.83
2018-11-05T21:35:15.813Z,25.83
2018-11-05T21:40:20.802Z,26.73
2018-11-05T21:45:25.284Z,27.27
2018-11-05T21:50:29.844Z,25.93
2018-11-05T21:55:34.710Z,26.77
2018-11-05T22:00:40.051Z,28.00
2018-11-05T22:05:44.423Z,26.30
2018-11-05T22:10:50.461Z,25.70
2018-11-05T22:15:54.950Z,26.33
2018-11-05T22:20:59.682Z,25.77
2018-11-05T22:26:04.142Z,27.33
2018-11-05T22:31:08.858Z,26.80
2018-11-05T22:36:13.485Z,26.00
2018-11-05T22:41:17.883Z,26.90
2018-11-05T22:46:22.147Z,26.77
2018-11-05T22:51:27.076Z,29.27
2018-11-05T22:56:35.751Z,26.33
2018-11-05T23:01:46.127Z,26.10
2018-11-05T23:06:52.506Z,27.73
2018-11-05T23:11:57.401Z,28.07
2018-11-05T23:17:02.965Z,25.90
2018-11-05T23:22:07.777Z,27.33
2018-11-05T23:27:12.318Z,26.43
2018-11-05T23:32:16.791Z,28.70
2018-11-05T23:37:21.389Z,26.13
2018-11-05T23:42:44.377Z,27.90
2018-11-05T23:47:49.908Z,27.07
2018-11-05T23:52:59.764Z,27.70
2018-11-05T23:58:05.171Z,28.20
